createdAt,value
2019-04-16T00:02:51.188Z,4.65
2019-04-16T00:05:48.512Z,4.53
2019-04-16T00:08:44.706Z,4.41
2019-04-16T00:11:43.924Z,4.64
2019-04-16T00:14:30.897Z,4.55
2019-04-16T00:17:16.518Z,4.54
2019-04-16T00:20:05.846Z,3.65
2019-04-16T00:22:59.575Z,3.78
2019-04-16T00:25:44.810Z,3.98
2019-04-16T00:28:31.338Z,3.94
2019-04-16T00:31:16.503Z,3.99
2019-04-16T00:34:01.495Z,4.10
2019-04-16T00:36:48.797Z,4.16
2019-04-16T00:39:33.253Z,4.07
2019-04-16T00:42:18.578Z,4.20
2019-04-16T00:45:04.005Z,4.29
2019-04-16T00:47:51.420Z,4.22
2019-04-16T00:50:36.346Z,4.41
2019-04-16T00:53:21.495Z,4.08
2019-04-16T00:56:07.346Z,4.11
2019-04-16T00:58:53.103Z,4.30
2019-04-16T01:01:38.262Z,4.16
2019-04-16T01:04:23.456Z,3.93
2019-04-16T01:07:08.198Z,4.05
2019-04-16T01:09:53.864Z,4.17
2019-04-16T01:12:39.455Z,4.21
2019-04-16T01:15:24.712Z,4.22
2019-04-16T01:18:09.600Z,4.12
2019-04-16T01:20:55.013Z,4.27
2019-04-16T01:23:40.404Z,4.23
2019-04-16T01:26:26.893Z,4.22
2019-04-16T01:29:15.590Z,4.27
2019-04-16T01:32:19.549Z,4.32
2019-04-16T01:35:06.799Z,4.34
2019-04-16T01:38:10.688Z,4.13
2019-04-16T01:41:10.273Z,4.03
2019-04-16T01:43:57.090Z,4.12
2019-04-16T01:46:42.525Z,3.92
2019-04-16T01:49:28.132Z,3.95
2019-04-16T01:52:13.199Z,4.11
2019-04-16T01:54:59.328Z,3.99
2019-04-16T01:57:44.459Z,3.92
2019-04-16T02:00:30.758Z,3.98
2019-04-16T02:03:17.815Z,3.89
2019-04-16T02:06:03.472Z,3.80
2019-04-16T02:08:48.939Z,4.04
2019-04-16T02:11:33.769Z,4.12
2019-04-16T02:14:22.127Z,4.21
2019-04-16T02:17:06.291Z,3.88
2019-04-16T02:19:51.378Z,4.05
2019-04-16T02:22:36.396Z,3.94
2019-04-16T02:25:21.757Z,3.99
2019-04-16T02:28:07.404Z,3.76
2019-04-16T02:30:52.684Z,3.88
2019-04-16T02:33:38.200Z,3.77
2019-04-16T02:36:23.337Z,3.63
2019-04-16T02:39:08.708Z,3.62
2019-04-16T02:41:58.136Z,3.70
2019-04-16T02:44:41.135Z,3.60
2019-04-16T02:47:25.927Z,3.68
2019-04-16T02:50:15.980Z,3.64
2019-04-16T02:53:24.129Z,3.78
2019-04-16T02:56:27.681Z,3.74
2019-04-16T02:59:26.802Z,3.63
2019-04-16T03:02:23.795Z,3.69
2019-04-16T03:05:10.979Z,3.71
2019-04-16T03:07:56.173Z,3.58
2019-04-16T03:10:41.846Z,3.56
2019-04-16T03:13:28.311Z,3.55
2019-04-16T03:16:27.868Z,3.57
2019-04-16T03:19:19.262Z,3.58
2019-04-16T03:22:02.977Z,3.55
2019-04-16T03:24:48.632Z,3.56
2019-04-16T03:27:33.486Z,3.25
2019-04-16T03:30:18.503Z,3.35
2019-04-16T03:33:10.422Z,3.46
2019-04-16T03:35:51.119Z,3.35
2019-04-16T03:38:39.999Z,3.09
2019-04-16T03:41:24.874Z,3.19
2019-04-16T03:44:10.816Z,3.34
2019-04-16T03:46:56.587Z,3.15
2019-04-16T03:49:41.960Z,3.12
2019-04-16T03:52:27.294Z,3.15
2019-04-16T03:55:12.254Z,3.24
2019-04-16T03:57:58.700Z,3.27
2019-04-16T04:00:44.942Z,3.29
2019-04-16T04:03:30.919Z,3.23
2019-04-16T04:06:16.222Z,3.31
2019-04-16T04:09:01.464Z,3.29
2019-04-16T04:11:46.681Z,3.32
2019-04-16T04:14:31.834Z,3.32
2019-04-16T04:17:17.030Z,3.20
2019-04-16T04:20:02.059Z,3.29
2019-04-16T04:22:47.316Z,3.36
2019-04-16T04:25:35.990Z,3.55
2019-04-16T04:28:20.643Z,3.51
2019-04-16T04:31:05.710Z,3.61
2019-04-16T04:33:51.316Z,3.78
2019-04-16T04:36:36.431Z,3.81
2019-04-16T04:39:21.397Z,3.95
2019-04-16T04:42:07.374Z,3.88
2019-04-16T04:44:52.515Z,3.98
2019-04-16T04:47:37.687Z,4.07
2019-04-16T04:50:22.366Z,4.29
2019-04-16T04:53:08.402Z,4.72
2019-04-16T04:55:57.134Z,5.02
2019-04-16T04:58:42.280Z,5.43
2019-04-16T05:01:27.729Z,6.89
2019-04-16T05:04:20.428Z,7.64
2019-04-16T05:07:08.243Z,8.04
2019-04-16T05:09:53.618Z,8.09
2019-04-16T05:12:39.341Z,8.72
2019-04-16T05:15:26.369Z,9.70
2019-04-16T05:18:12.322Z,10.00
2019-04-16T05:20:57.908Z,10.08
2019-04-16T05:23:43.733Z,10.63
2019-04-16T05:26:29.382Z,10.69
2019-04-16T05:29:17.464Z,10.97
2019-04-16T05:32:02.367Z,11.54
2019-04-16T05:34:48.092Z,11.78
2019-04-16T05:37:33.651Z,12.10
2019-04-16T05:40:20.665Z,11.52
2019-04-16T05:43:06.469Z,11.58
2019-04-16T05:45:52.257Z,11.01
2019-04-16T05:48:38.092Z,10.04
2019-04-16T05:51:23.544Z,9.36
2019-04-16T05:54:28.108Z,8.76
2019-04-16T05:57:25.638Z,8.20
2019-04-16T06:00:10.857Z,8.19
2019-04-16T06:02:56.631Z,8.24
2019-04-16T06:05:42.219Z,8.38
2019-04-16T06:08:27.918Z,8.43
2019-04-16T06:11:27.464Z,8.12
2019-04-16T06:14:05.536Z,8.12
2019-04-16T06:16:56.795Z,7.99
2019-04-16T06:20:00.671Z,8.51
2019-04-16T06:23:06.422Z,8.32
2019-04-16T06:25:53.542Z,8.74
2019-04-16T06:28:56.419Z,8.57
2019-04-16T06:31:56.858Z,8.80
2019-04-16T06:34:47.140Z,9.24
2019-04-16T06:37:33.884Z,9.49
2019-04-16T06:40:37.983Z,9.69
2019-04-16T06:43:26.478Z,9.65
2019-04-16T06:46:20.629Z,9.69
2019-04-16T06:49:08.198Z,10.10
2019-04-16T06:52:04.692Z,11.79
2019-04-16T06:55:08.968Z,13.66
2019-04-16T06:58:05.536Z,14.35
2019-04-16T07:01:07.972Z,15.51
2019-04-16T07:03:59.943Z,15.86
2019-04-16T07:07:07.772Z,16.05
2019-04-16T07:09:56.717Z,16.49
2019-04-16T07:12:40.639Z,17.37
2019-04-16T07:15:28.765Z,18.68
2019-04-16T07:18:14.197Z,19.14
2019-04-16T07:21:00.139Z,18.95
2019-04-16T07:23:47.554Z,19.09
2019-04-16T07:26:34.057Z,19.05
2019-04-16T07:29:24.742Z,17.35
2019-04-16T07:32:21.805Z,18.64
2019-04-16T07:35:27.410Z,19.08
2019-04-16T07:38:35.186Z,19.24
2019-04-16T07:41:22.409Z,18.57
2019-04-16T07:44:11.246Z,19.05
2019-04-16T07:46:59.160Z,19.96
2019-04-16T07:49:49.970Z,19.78
2019-04-16T07:52:42.093Z,19.10
2019-04-16T07:55:33.110Z,19.13
2019-04-16T07:58:18.219Z,19.51
2019-04-16T08:01:04.839Z,21.20
2019-04-16T08:03:50.126Z,19.73
2019-04-16T08:06:35.893Z,21.13
2019-04-16T08:09:21.436Z,19.71
2019-04-16T08:12:10.841Z,19.68
2019-04-16T08:14:54.563Z,20.26
2019-04-16T08:17:40.055Z,20.21
2019-04-16T08:20:26.052Z,20.92
2019-04-16T08:23:30.934Z,20.96
2019-04-16T08:26:17.376Z,21.63
2019-04-16T08:29:03.481Z,21.49
2019-04-16T08:31:50.017Z,21.90
2019-04-16T08:34:35.836Z,20.54
2019-04-16T08:37:21.599Z,20.86
2019-04-16T08:40:08.820Z,21.26
2019-04-16T08:42:57.534Z,21.28
2019-04-16T08:45:42.643Z,21.39
2019-04-16T08:48:28.330Z,20.24
2019-04-16T08:51:14.813Z,19.62
2019-04-16T08:54:00.321Z,19.80
2019-04-16T08:56:46.158Z,18.97
2019-04-16T08:59:32.407Z,18.62
2019-04-16T09:02:18.285Z,19.07
2019-04-16T09:05:06.238Z,19.33
2019-04-16T09:07:51.986Z,19.03
2019-04-16T09:10:38.296Z,18.72
2019-04-16T09:13:28.562Z,19.19
2019-04-16T09:16:14.265Z,19.23
2019-04-16T09:19:16.880Z,18.03
2019-04-16T09:22:03.106Z,19.08
2019-04-16T09:24:57.073Z,19.39
2019-04-16T09:27:44.586Z,18.58
2019-04-16T09:30:46.709Z,18.19
2019-04-16T09:33:36.613Z,17.53
2019-04-16T09:36:42.721Z,17.94
2019-04-16T09:39:48.910Z,18.57
2019-04-16T09:42:35.652Z,18.74
2019-04-16T09:45:24.377Z,18.50
2019-04-16T09:48:08.866Z,17.70
2019-04-16T09:50:54.548Z,18.03
2019-04-16T09:53:40.941Z,19.40
2019-04-16T09:56:29.127Z,18.96
2019-04-16T09:59:17.236Z,17.96
2019-04-16T10:02:04.847Z,18.15
2019-04-16T10:04:50.451Z,18.47
2019-04-16T10:07:39.836Z,18.20
2019-04-16T10:10:27.963Z,19.10
2019-04-16T10:13:12.738Z,19.60
2019-04-16T10:15:58.850Z,18.19
2019-04-16T10:18:44.695Z,18.11
2019-04-16T10:21:30.614Z,18.33
2019-04-16T10:24:18.377Z,18.14
2019-04-16T10:27:04.539Z,17.88
2019-04-16T10:29:50.114Z,17.57
2019-04-16T10:32:35.664Z,18.61
2019-04-16T10:35:21.525Z,19.27
2019-04-16T10:38:26.538Z,19.21
2019-04-16T10:41:14.874Z,20.21
2019-04-16T10:44:06.019Z,20.32
2019-04-16T10:46:56.955Z,20.35
2019-04-16T10:49:45.050Z,20.13
2019-04-16T10:52:32.686Z,19.70
2019-04-16T10:55:23.041Z,19.77
2019-04-16T10:58:27.178Z,18.93
2019-04-16T11:01:30.373Z,19.22
2019-04-16T11:04:32.235Z,18.92
2019-04-16T11:07:20.051Z,18.93
2019-04-16T11:10:06.695Z,18.17
2019-04-16T11:12:52.898Z,19.23
2019-04-16T11:15:39.534Z,19.90
2019-04-16T11:18:24.681Z,19.28
2019-04-16T11:21:11.823Z,19.54
2019-04-16T11:23:57.129Z,20.05
2019-04-16T11:26:44.429Z,18.97
2019-04-16T11:29:30.044Z,19.33
2019-04-16T11:32:19.210Z,17.04
2019-04-16T11:35:04.943Z,19.17
2019-04-16T11:37:51.027Z,20.26
2019-04-16T11:40:37.184Z,19.80
2019-04-16T11:43:22.926Z,19.10
2019-04-16T11:46:09.051Z,19.10
2019-04-16T11:48:55.177Z,19.70
2019-04-16T11:51:40.734Z,20.53
2019-04-16T11:54:26.554Z,20.44
2019-04-16T11:57:13.313Z,20.51
2019-04-16T12:00:07.785Z,20.12
2019-04-16T12:03:05.147Z,21.67
2019-04-16T12:06:09.374Z,20.93
2019-04-16T12:08:59.904Z,21.97
2019-04-16T12:11:50.596Z,22.64
2019-04-16T12:14:53.934Z,22.98
2019-04-16T12:17:59.432Z,22.43
2019-04-16T12:20:50.518Z,21.90
2019-04-16T12:23:38.385Z,23.83
2019-04-16T12:26:37.926Z,23.42
2019-04-16T12:29:34.197Z,23.39
2019-04-16T12:32:21.959Z,24.12
2019-04-16T12:35:10.528Z,23.26
2019-04-16T12:38:18.366Z,23.75
2019-04-16T12:41:12.782Z,22.72
2019-04-16T12:44:17.518Z,23.70
2019-04-16T12:47:08.217Z,24.07
2019-04-16T12:50:05.178Z,24.45
2019-04-16T12:52:58.463Z,23.56
2019-04-16T12:55:49.706Z,23.89
2019-04-16T12:58:40.999Z,22.81
2019-04-16T13:01:36.337Z,22.88
2019-04-16T13:04:42.109Z,23.70
2019-04-16T13:07:46.806Z,22.79
2019-04-16T13:10:34.192Z,23.62
2019-04-16T13:13:22.008Z,22.60
2019-04-16T13:16:09.363Z,23.05
2019-04-16T13:19:13.542Z,23.11
2019-04-16T13:22:00.003Z,22.57
2019-04-16T13:24:51.504Z,22.95
2019-04-16T13:27:39.033Z,23.58
2019-04-16T13:30:25.103Z,23.25
2019-04-16T13:33:11.138Z,23.66
2019-04-16T13:35:57.084Z,22.59
2019-04-16T13:38:44.927Z,23.39
2019-04-16T13:41:30.489Z,22.58
2019-04-16T13:44:18.081Z,20.72
2019-04-16T13:47:04.822Z,19.52
2019-04-16T13:50:04.937Z,19.33
2019-04-16T13:52:54.947Z,19.51
2019-04-16T13:55:44.606Z,18.63
2019-04-16T13:58:41.200Z,18.20
2019-04-16T14:01:28.838Z,18.24
2019-04-16T14:04:14.897Z,18.28
2019-04-16T14:07:00.648Z,17.88
2019-04-16T14:09:46.208Z,17.52
2019-04-16T14:12:41.979Z,17.64
2019-04-16T14:15:31.627Z,17.51
2019-04-16T14:18:09.764Z,17.77
2019-04-16T14:20:55.865Z,17.60
2019-04-16T14:23:41.754Z,17.41
2019-04-16T14:26:27.147Z,17.44
2019-04-16T14:29:12.612Z,17.24
2019-04-16T14:31:58.821Z,17.20
2019-04-16T14:34:46.076Z,16.60
2019-04-16T14:37:31.353Z,16.46
2019-04-16T14:40:10.719Z,16.64
2019-04-16T14:42:37.534Z,16.53
2019-04-16T14:45:19.039Z,16.94
2019-04-16T14:47:45.864Z,16.75
2019-04-16T14:50:13.821Z,16.46
2019-04-16T14:52:40.785Z,16.55
2019-04-16T14:55:09.827Z,16.69
2019-04-16T14:57:39.797Z,16.65
2019-04-16T15:00:09.174Z,16.60
2019-04-16T15:02:40.784Z,16.49
2019-04-16T15:05:16.329Z,16.54
2019-04-16T15:08:12.924Z,16.45
2019-04-16T15:11:00.269Z,16.50
2019-04-16T15:13:56.928Z,16.47
2019-04-16T15:16:50.890Z,16.43
2019-04-16T15:19:50.269Z,16.29
2019-04-16T15:22:54.501Z,16.22
2019-04-16T15:25:44.262Z,16.05
2019-04-16T15:28:31.956Z,16.08
2019-04-16T15:31:22.317Z,15.86
2019-04-16T15:34:18.457Z,15.69
2019-04-16T15:37:09.295Z,15.80
2019-04-16T15:39:59.189Z,15.88
2019-04-16T15:42:48.123Z,15.93
2019-04-16T15:45:37.471Z,15.92
2019-04-16T15:48:36.775Z,15.83
2019-04-16T15:51:32.790Z,15.64
2019-04-16T15:54:36.717Z,15.63
2019-04-16T15:57:41.140Z,15.68
2019-04-16T16:00:44.887Z,15.71
2019-04-16T16:03:48.933Z,15.74
2019-04-16T16:06:36.699Z,15.54
2019-04-16T16:09:26.646Z,15.37
2019-04-16T16:12:14.319Z,15.43
2019-04-16T16:14:59.735Z,15.38
2019-04-16T16:17:45.595Z,15.30
2019-04-16T16:20:31.198Z,15.02
2019-04-16T16:23:16.452Z,15.20
2019-04-16T16:26:02.652Z,15.15
2019-04-16T16:28:48.668Z,15.15
2019-04-16T16:31:35.701Z,14.78
2019-04-16T16:34:21.237Z,15.03
2019-04-16T16:37:06.660Z,14.91
2019-04-16T16:39:52.197Z,14.50
2019-04-16T16:42:37.467Z,14.43
2019-04-16T16:45:24.483Z,14.53
2019-04-16T16:48:10.996Z,14.56
2019-04-16T16:50:56.468Z,14.63
2019-04-16T16:53:47.017Z,14.40
2019-04-16T16:56:49.553Z,14.34
2019-04-16T16:59:53.259Z,14.15
2019-04-16T17:02:40.546Z,14.12
2019-04-16T17:05:32.013Z,14.09
2019-04-16T17:08:17.702Z,13.88
2019-04-16T17:11:14.617Z,13.91
2019-04-16T17:13:50.415Z,13.80
2019-04-16T17:16:37.205Z,13.74
2019-04-16T17:19:22.680Z,13.53
2019-04-16T17:22:07.959Z,13.46
2019-04-16T17:24:53.134Z,13.04
2019-04-16T17:27:50.525Z,13.18
2019-04-16T17:30:25.329Z,13.28
2019-04-16T17:33:10.593Z,13.09
2019-04-16T17:35:55.874Z,12.98
2019-04-16T17:38:41.247Z,12.78
2019-04-16T17:41:28.372Z,12.77
2019-04-16T17:44:27.374Z,12.68
2019-04-16T17:47:32.266Z,12.39
2019-04-16T17:50:18.227Z,12.36
2019-04-16T17:53:17.463Z,12.25
2019-04-16T17:56:20.900Z,12.16
2019-04-16T17:59:08.125Z,12.00
2019-04-16T18:02:11.928Z,12.12
2019-04-16T18:04:59.283Z,12.12
2019-04-16T18:07:46.524Z,12.16
2019-04-16T18:10:52.467Z,12.01
2019-04-16T18:13:45.767Z,11.74
2019-04-16T18:16:35.922Z,11.87
2019-04-16T18:19:25.922Z,11.51
2019-04-16T18:22:15.778Z,11.67
2019-04-16T18:25:05.034Z,11.55
2019-04-16T18:27:52.427Z,11.40
2019-04-16T18:30:48.716Z,11.33
2019-04-16T18:33:53.215Z,11.35
2019-04-16T18:36:46.521Z,11.65
2019-04-16T18:39:37.172Z,11.46
2019-04-16T18:42:39.189Z,11.57
2019-04-16T18:45:26.573Z,11.63
2019-04-16T18:48:23.988Z,11.55
2019-04-16T18:51:09.664Z,11.72
2019-04-16T18:53:55.403Z,11.66
2019-04-16T18:56:40.796Z,11.63
2019-04-16T18:59:26.978Z,11.50
2019-04-16T19:02:12.354Z,11.58
2019-04-16T19:04:57.840Z,11.46
2019-04-16T19:07:44.755Z,11.52
2019-04-16T19:10:30.456Z,11.41
2019-04-16T19:13:15.406Z,11.52
2019-04-16T19:16:02.112Z,11.45
2019-04-16T19:18:47.492Z,11.55
2019-04-16T19:21:33.078Z,11.31
2019-04-16T19:24:18.582Z,11.30
2019-04-16T19:27:04.902Z,11.17
2019-04-16T19:29:50.666Z,11.17
2019-04-16T19:32:36.638Z,11.25
2019-04-16T19:35:22.596Z,11.14
2019-04-16T19:38:08.419Z,11.17
2019-04-16T19:40:55.069Z,11.38
2019-04-16T19:43:40.753Z,11.03
2019-04-16T19:46:26.408Z,11.34
2019-04-16T19:49:11.880Z,11.33
2019-04-16T19:51:57.146Z,11.31
2019-04-16T19:54:42.738Z,11.16
2019-04-16T19:57:28.825Z,11.28
2019-04-16T20:00:14.389Z,11.29
2019-04-16T20:02:59.825Z,11.46
2019-04-16T20:05:45.573Z,11.28
2019-04-16T20:08:34.446Z,11.11
2019-04-16T20:11:21.377Z,11.15
2019-04-16T20:14:06.060Z,10.90
2019-04-16T20:16:51.817Z,11.13
2019-04-16T20:19:39.023Z,11.17
2019-04-16T20:22:24.620Z,11.33
2019-04-16T20:25:09.913Z,11.25
2019-04-16T20:27:55.533Z,11.24
2019-04-16T20:30:40.509Z,11.04
2019-04-16T20:33:26.345Z,11.08
2019-04-16T20:36:11.696Z,11.15
2019-04-16T20:38:57.476Z,11.18
2019-04-16T20:41:42.666Z,11.18
2019-04-16T20:44:27.625Z,11.27
2019-04-16T20:47:13.005Z,11.19
2019-04-16T20:49:58.445Z,11.32
2019-04-16T20:52:43.964Z,11.19
2019-04-16T20:55:29.153Z,11.18
2019-04-16T20:58:14.864Z,11.28
2019-04-16T21:01:01.572Z,11.24
2019-04-16T21:03:48.381Z,10.92
2019-04-16T21:06:33.737Z,11.08
2019-04-16T21:09:19.404Z,11.27
2019-04-16T21:12:04.479Z,10.93
2019-04-16T21:14:50.942Z,10.84
2019-04-16T21:17:39.095Z,10.82
2019-04-16T21:20:23.707Z,10.77
2019-04-16T21:23:09.094Z,10.65
2019-04-16T21:25:54.535Z,10.54
2019-04-16T21:28:44.606Z,10.59
2019-04-16T21:31:43.837Z,10.54
2019-04-16T21:34:31.477Z,10.54
2019-04-16T21:37:21.475Z,10.36
2019-04-16T21:40:07.913Z,10.32
2019-04-16T21:42:53.176Z,10.36
2019-04-16T21:45:38.241Z,9.80
2019-04-16T21:48:26.440Z,10.06
2019-04-16T21:51:10.690Z,9.73
2019-04-16T21:53:57.381Z,10.01
2019-04-16T21:56:43.843Z,9.99
2019-04-16T21:59:29.283Z,10.14
2019-04-16T22:02:22.146Z,10.12
2019-04-16T22:05:07.821Z,10.16
2019-04-16T22:07:53.712Z,10.02
2019-04-16T22:10:40.674Z,10.21
2019-04-16T22:13:25.845Z,10.16
2019-04-16T22:16:11.585Z,10.03
2019-04-16T22:18:56.598Z,10.15
2019-04-16T22:21:42.851Z,10.17
2019-04-16T22:24:29.049Z,10.13
2019-04-16T22:27:13.837Z,9.78
2019-04-16T22:29:59.147Z,9.55
2019-04-16T22:32:44.416Z,9.36
2019-04-16T22:35:31.850Z,9.63
2019-04-16T22:38:16.400Z,9.77
2019-04-16T22:41:06.382Z,9.89
2019-04-16T22:43:56.647Z,9.87
2019-04-16T22:46:44.181Z,9.88
2019-04-16T22:49:29.112Z,9.77
2019-04-16T22:52:14.209Z,9.87
2019-04-16T22:54:59.371Z,9.74
2019-04-16T22:57:44.693Z,9.65
2019-04-16T23:00:32.288Z,9.82
2019-04-16T23:03:19.595Z,9.87
2019-04-16T23:06:06.304Z,9.72
2019-04-16T23:08:51.889Z,9.67
2019-04-16T23:11:39.113Z,9.75
2019-04-16T23:14:24.608Z,9.81
2019-04-16T23:17:13.185Z,9.77
2019-04-16T23:19:57.142Z,9.66
2019-04-16T23:22:43.652Z,9.53
2019-04-16T23:25:29.505Z,9.59
2019-04-16T23:28:14.574Z,9.74
2019-04-16T23:30:59.627Z,9.47
2019-04-16T23:33:45.003Z,9.39
2019-04-16T23:36:30.427Z,9.21
2019-04-16T23:39:15.964Z,8.91
2019-04-16T23:42:01.191Z,9.06
2019-04-16T23:44:48.493Z,9.23
2019-04-16T23:47:54.115Z,9.22
2019-04-16T23:50:45.221Z,9.36
2019-04-16T23:53:48.775Z,9.28
2019-04-16T23:56:36.284Z,9.29
2019-04-16T23:59:26.531Z,9.01
